RYR112 EDDB-LIEE
Flight info
| Callsign | RYR112 |
|---|---|
| Flight time | N/A |
| Altitude | 38000 |
| Route | LUROS3Q LUROS DCT LIKDA/N0440F370 DCT DEXUL Q125 KOVAS |
| Aircraft | B738/M-SDE2E3FGHIRWXY/LB1 |
Departure
| Time | N/A |
|---|---|
| Airport | Berlin Brandenburg Airport (EDDB) |
Arrival
| Time | 2026-04-28 19:48 |
|---|---|
| Airport | Cagliari Elmas Airport (LIEE) |
| Time | Latitude | Longitude | Altitude | Speed | Heading |
|---|---|---|---|---|---|
| 2026-04-28 19:21 | 41.42580 | 9.66101 | 38066 ft | 424 kts | 197° |
| 2026-04-28 19:21 | 41.36866 | 9.64159 | 38051 ft | 429 kts | 197° |
| 2026-04-28 19:22 | 41.32003 | 9.62516 | 38056 ft | 432 kts | 197° |
| 2026-04-28 19:22 | 41.28079 | 9.61189 | 37065 ft | 444 kts | 197° |
| 2026-04-28 19:22 | 41.25042 | 9.60161 | 36551 ft | 453 kts | 197° |
| 2026-04-28 19:23 | 41.18881 | 9.58085 | 35781 ft | 463 kts | 196° |
| 2026-04-28 19:23 | 41.15799 | 9.57050 | 35402 ft | 451 kts | 196° |
| 2026-04-28 19:23 | 41.12795 | 9.56045 | 35050 ft | 440 kts | 196° |
| 2026-04-28 19:24 | 41.09849 | 9.55057 | 34526 ft | 434 kts | 196° |
| 2026-04-28 19:24 | 41.06937 | 9.54077 | 33920 ft | 429 kts | 196° |
| 2026-04-28 19:24 | 41.04050 | 9.53106 | 33273 ft | 425 kts | 196° |
| 2026-04-28 19:24 | 41.01202 | 9.52151 | 32663 ft | 421 kts | 196° |
| 2026-04-28 19:25 | 40.98400 | 9.51214 | 32173 ft | 420 kts | 196° |
| 2026-04-28 19:25 | 40.95577 | 9.50270 | 31805 ft | 416 kts | 196° |
| 2026-04-28 19:25 | 40.92778 | 9.49336 | 31431 ft | 413 kts | 195° |
| 2026-04-28 19:25 | 40.90007 | 9.48410 | 31056 ft | 410 kts | 196° |
| 2026-04-28 19:26 | 40.87248 | 9.47490 | 30679 ft | 407 kts | 196° |
| 2026-04-28 19:26 | 40.84505 | 9.46575 | 30296 ft | 405 kts | 195° |
| 2026-04-28 19:26 | 40.81777 | 9.45666 | 29893 ft | 403 kts | 195° |
| 2026-04-28 19:26 | 40.79058 | 9.44762 | 29439 ft | 402 kts | 195° |
| 2026-04-28 19:27 | 40.76388 | 9.43875 | 29086 ft | 399 kts | 195° |
| 2026-04-28 19:27 | 40.73701 | 9.42982 | 28695 ft | 396 kts | 195° |
| 2026-04-28 19:27 | 40.71040 | 9.42099 | 28319 ft | 393 kts | 195° |
| 2026-04-28 19:27 | 40.68394 | 9.41222 | 27953 ft | 391 kts | 195° |
| 2026-04-28 19:28 | 40.65759 | 9.40349 | 27571 ft | 388 kts | 195° |
| 2026-04-28 19:28 | 40.63146 | 9.39484 | 27206 ft | 386 kts | 195° |
| 2026-04-28 19:28 | 40.60556 | 9.38626 | 26832 ft | 383 kts | 195° |
| 2026-04-28 19:28 | 40.57974 | 9.37773 | 26465 ft | 381 kts | 195° |
| 2026-04-28 19:29 | 40.55442 | 9.36937 | 26113 ft | 379 kts | 195° |
| 2026-04-28 19:29 | 40.53720 | 9.36369 | 25885 ft | 377 kts | 195° |
| 2026-04-28 19:29 | 40.50357 | 9.35259 | 25415 ft | 375 kts | 195° |
| 2026-04-28 19:29 | 40.47833 | 9.34428 | 25074 ft | 373 kts | 195° |
| 2026-04-28 19:30 | 40.45322 | 9.33601 | 24740 ft | 371 kts | 195° |
| 2026-04-28 19:30 | 40.42824 | 9.32779 | 24408 ft | 369 kts | 195° |
| 2026-04-28 19:30 | 40.40340 | 9.31962 | 24080 ft | 367 kts | 195° |
| 2026-04-28 19:30 | 40.37867 | 9.31150 | 23755 ft | 365 kts | 195° |
| 2026-04-28 19:31 | 40.35406 | 9.30342 | 23400 ft | 363 kts | 195° |
| 2026-04-28 19:31 | 40.32990 | 9.29550 | 23025 ft | 361 kts | 195° |
| 2026-04-28 19:31 | 40.30554 | 9.28751 | 22649 ft | 360 kts | 195° |
| 2026-04-28 19:31 | 40.28135 | 9.27960 | 22282 ft | 358 kts | 195° |
| 2026-04-28 19:32 | 40.25724 | 9.27171 | 21919 ft | 356 kts | 195° |
| 2026-04-28 19:32 | 40.23325 | 9.26386 | 21549 ft | 354 kts | 195° |
| 2026-04-28 19:32 | 40.20937 | 9.25606 | 21187 ft | 352 kts | 195° |
| 2026-04-28 19:32 | 40.18562 | 9.24831 | 20825 ft | 351 kts | 195° |
| 2026-04-28 19:33 | 40.16203 | 9.24061 | 20469 ft | 349 kts | 195° |
| 2026-04-28 19:33 | 40.13851 | 9.23294 | 20114 ft | 347 kts | 195° |
| 2026-04-28 19:33 | 40.11522 | 9.22535 | 19674 ft | 343 kts | 195° |
| 2026-04-28 19:33 | 40.09208 | 9.21782 | 19165 ft | 342 kts | 195° |
| 2026-04-28 19:34 | 40.06936 | 9.21043 | 18661 ft | 341 kts | 195° |
| 2026-04-28 19:34 | 40.04638 | 9.20295 | 18141 ft | 339 kts | 195° |
| 2026-04-28 19:34 | 40.02354 | 9.19552 | 17588 ft | 337 kts | 195° |
| 2026-04-28 19:34 | 40.00088 | 9.18817 | 17067 ft | 334 kts | 195° |
| 2026-04-28 19:35 | 39.97846 | 9.18090 | 16546 ft | 331 kts | 195° |
| 2026-04-28 19:35 | 39.95610 | 9.17365 | 16022 ft | 329 kts | 195° |
| 2026-04-28 19:35 | 39.93403 | 9.16650 | 15520 ft | 326 kts | 195° |
| 2026-04-28 19:35 | 39.91206 | 9.15938 | 14992 ft | 324 kts | 195° |
| 2026-04-28 19:36 | 39.89016 | 9.15230 | 14519 ft | 324 kts | 195° |
| 2026-04-28 19:36 | 39.86835 | 9.14525 | 14172 ft | 322 kts | 195° |
| 2026-04-28 19:36 | 39.84671 | 9.13821 | 13828 ft | 319 kts | 196° |
| 2026-04-28 19:36 | 39.82551 | 9.13111 | 13431 ft | 317 kts | 196° |
| 2026-04-28 19:37 | 39.80430 | 9.12387 | 13026 ft | 314 kts | 197° |
| 2026-04-28 19:37 | 39.79002 | 9.11899 | 12759 ft | 313 kts | 196° |
| 2026-04-28 19:37 | 39.76225 | 9.10961 | 12231 ft | 310 kts | 196° |
| 2026-04-28 19:37 | 39.74142 | 9.10264 | 11843 ft | 308 kts | 196° |
| 2026-04-28 19:38 | 39.72079 | 9.09573 | 11473 ft | 304 kts | 196° |
| 2026-04-28 19:38 | 39.70062 | 9.08899 | 11358 ft | 293 kts | 195° |
| 2026-04-28 19:38 | 39.68132 | 9.08253 | 11280 ft | 281 kts | 195° |
| 2026-04-28 19:38 | 39.66279 | 9.07631 | 11048 ft | 276 kts | 196° |
| 2026-04-28 19:39 | 39.64409 | 9.07118 | 10707 ft | 276 kts | 186° |
| 2026-04-28 19:39 | 39.62492 | 9.07091 | 10387 ft | 276 kts | 181° |
| 2026-04-28 19:39 | 39.60574 | 9.07133 | 10065 ft | 274 kts | 180° |
| 2026-04-28 19:39 | 39.58674 | 9.07186 | 9755 ft | 273 kts | 180° |
| 2026-04-28 19:40 | 39.56774 | 9.07240 | 9402 ft | 272 kts | 180° |
| 2026-04-28 19:40 | 39.54885 | 9.07280 | 9062 ft | 270 kts | 182° |
| 2026-04-28 19:40 | 39.53054 | 9.06842 | 8730 ft | 265 kts | 201° |
| 2026-04-28 19:40 | 39.51475 | 9.05718 | 8340 ft | 260 kts | 215° |
| 2026-04-28 19:41 | 39.50050 | 9.04397 | 8037 ft | 244 kts | 216° |
| 2026-04-28 19:41 | 39.48718 | 9.03127 | 7749 ft | 231 kts | 216° |
| 2026-04-28 19:41 | 39.47466 | 9.01932 | 7479 ft | 214 kts | 216° |
| 2026-04-28 19:41 | 39.46304 | 9.00832 | 7054 ft | 201 kts | 216° |
| 2026-04-28 19:42 | 39.45196 | 8.99788 | 6497 ft | 199 kts | 216° |
| 2026-04-28 19:42 | 39.44073 | 8.98732 | 5846 ft | 200 kts | 215° |
| 2026-04-28 19:42 | 39.42951 | 8.97679 | 5270 ft | 196 kts | 215° |
| 2026-04-28 19:42 | 39.42238 | 8.97007 | 4994 ft | 188 kts | 215° |
| 2026-04-28 19:43 | 39.40852 | 8.95704 | 4274 ft | 182 kts | 214° |
| 2026-04-28 19:43 | 39.39842 | 8.94756 | 3673 ft | 181 kts | 213° |
| 2026-04-28 19:43 | 39.38877 | 8.93848 | 3440 ft | 162 kts | 214° |
| 2026-04-28 19:43 | 39.37990 | 8.93014 | 3268 ft | 157 kts | 213° |
| 2026-04-28 19:44 | 39.37015 | 8.92432 | 3047 ft | 152 kts | 183° |
| 2026-04-28 19:44 | 39.36017 | 8.92797 | 2866 ft | 155 kts | 140° |
| 2026-04-28 19:44 | 39.35241 | 8.93744 | 2628 ft | 154 kts | 138° |
| 2026-04-28 19:44 | 39.34448 | 8.94653 | 2362 ft | 151 kts | 138° |
| 2026-04-28 19:45 | 39.33662 | 8.95550 | 2106 ft | 150 kts | 138° |
| 2026-04-28 19:45 | 39.32885 | 8.96446 | 1870 ft | 150 kts | 137° |
| 2026-04-28 19:45 | 39.32118 | 8.97336 | 1651 ft | 150 kts | 137° |
| 2026-04-28 19:45 | 39.31348 | 8.98242 | 1448 ft | 151 kts | 137° |
| 2026-04-28 19:46 | 39.30582 | 8.99183 | 1211 ft | 152 kts | 137° |
| 2026-04-28 19:46 | 39.29801 | 9.00096 | 987 ft | 151 kts | 139° |
| 2026-04-28 19:46 | 39.29013 | 9.00996 | 756 ft | 150 kts | 140° |
| 2026-04-28 19:46 | 39.28243 | 9.01884 | 582 ft | 146 kts | 140° |
| 2026-04-28 19:47 | 39.27497 | 9.02750 | 381 ft | 143 kts | 141° |
| 2026-04-28 19:47 | 39.26747 | 9.03606 | 217 ft | 144 kts | 143° |
| 2026-04-28 19:47 | 39.25994 | 9.04459 | 37 ft | 142 kts | 142° |
| 2026-04-28 19:47 | 39.25333 | 9.05213 | 13 ft | 102 kts | 138° |
| 2026-04-28 19:48 | 39.24951 | 9.05657 | 16 ft | 52 kts | 138° |
| 2026-04-28 19:48 | 39.24769 | 9.05869 | 15 ft | 29 kts | 138° |
| 2026-04-28 19:48 | 39.24682 | 9.05991 | 14 ft | 11 kts | 105° |
| 2026-04-28 19:48 | 39.24694 | 9.06073 | 16 ft | 8 kts | 67° |
| 2026-04-28 19:49 | 39.24712 | 9.06126 | 14 ft | 6 kts | 66° |
| 2026-04-28 19:49 | 39.24742 | 9.06153 | 14 ft | 5 kts | 4° |
| 2026-04-28 19:49 | 39.24773 | 9.06133 | 23 ft | 5 kts | 318° |
| 2026-04-28 19:49 | 39.24800 | 9.06103 | 3 ft | 5 kts | 320° |
| 2026-04-28 19:50 | 39.24853 | 9.06043 | 3 ft | 5 kts | 318° |
| 2026-04-28 19:50 | 39.24879 | 9.06014 | 3 ft | 5 kts | 318° |
| 2026-04-28 19:50 | 39.24907 | 9.05981 | 3 ft | 7 kts | 317° |
| 2026-04-28 19:51 | 39.24950 | 9.05930 | 3 ft | 10 kts | 318° |
| 2026-04-28 19:51 | 39.25012 | 9.05858 | 1 ft | 14 kts | 318° |
| 2026-04-28 19:51 | 39.25076 | 9.05784 | 3 ft | 7 kts | 318° |
| 2026-04-28 19:51 | 39.25108 | 9.05766 | 3 ft | 4 kts | 9° |
| 2026-04-28 19:52 | 39.25132 | 9.05794 | 3 ft | 5 kts | 59° |
| 2026-04-28 19:52 | 39.25148 | 9.05834 | 3 ft | 4 kts | 61° |
| 2026-04-28 19:52 | 39.25175 | 9.05847 | 2 ft | 4 kts | 347° |
| 2026-04-28 19:52 | 39.25201 | 9.05822 | 3 ft | 5 kts | 320° |
| 2026-04-28 19:53 | 39.25229 | 9.05791 | 2 ft | 6 kts | 319° |
| 2026-04-28 19:53 | 39.25250 | 9.05780 | 2 ft | 3 kts | 1° |
| 2026-04-28 19:53 | 39.25271 | 9.05800 | 3 ft | 3 kts | 48° |
| 2026-04-28 19:53 | 39.25285 | 9.05823 | 2 ft | 2 kts | 53° |
| 2026-04-28 19:54 | 39.25285 | 9.05824 | 2 ft | 0 kts | 53° |